Terminal Aerodrome Forecast
Issued by NWS

Home | Current Version | Previous Version | Text Only | Print | Product List | Glossary On
Versions: 1 2 3 4 5 6 7 8 9 10 11 12 13 14 15 16 17 18 19 20 21 22 23
000
FTUS41 KPBZ 011720
TAFFKL
TAF
KFKL 011720Z 0118/0218 25008KT P6SM SCT025 BKN035
     FM020900 VRB03KT 1SM BR BKN004
     FM021000 VRB03KT 1/2SM FG OVC001
     FM021400 VRB03KT 3SM BR SCT010
     FM021600 VRB03KT P6SM BKN050
      AMD LTD TO CLD VIS AND WIND=

USA.gov is the U.S. government's official web portal to all federal, state and local government web resources and services.